sensor_id;sensor_type;location;lat;lon;timestamp;pressure;altitude;pressure_sealevel;temperature;humidity
11017;BME280;54687;50.800;6.772;2023-07-31T00:01:25;93193.91;;;-144.06;27.87
11017;BME280;54687;50.800;6.772;2023-07-31T00:03:51;93219.31;;;-144.06;27.94
11017;BME280;54687;50.800;6.772;2023-07-31T00:06:18;93181.22;;;-144.06;27.94
11017;BME280;54687;50.800;6.772;2023-07-31T00:08:47;93177.00;;;-144.06;27.82
11017;BME280;54687;50.800;6.772;2023-07-31T00:11:14;93267.97;;;-144.06;27.89
11017;BME280;54687;50.800;6.772;2023-07-31T00:13:41;93248.94;;;-144.06;27.84
11017;BME280;54687;50.800;6.772;2023-07-31T00:16:09;93225.66;;;-144.06;27.69
11017;BME280;54687;50.800;6.772;2023-07-31T00:18:37;93289.13;;;-144.06;27.86
11017;BME280;54687;50.800;6.772;2023-07-31T00:21:05;93185.44;;;-144.06;27.62
11017;BME280;54687;50.800;6.772;2023-07-31T00:23:34;93162.19;;;-144.06;27.55
11017;BME280;54687;50.800;6.772;2023-07-31T00:26:03;93193.91;;;-144.06;27.72
11017;BME280;54687;50.800;6.772;2023-07-31T00:28:30;93172.75;;;-144.06;27.79
11017;BME280;54687;50.800;6.772;2023-07-31T00:30:59;93172.75;;;-144.06;27.59
11017;BME280;54687;50.800;6.772;2023-07-31T00:33:29;93168.53;;;-144.06;27.71
11017;BME280;54687;50.800;6.772;2023-07-31T00:36:16;93232.00;;;-144.06;27.83
11017;BME280;54687;50.800;6.772;2023-07-31T00:38:48;93200.25;;;-144.06;27.65
11017;BME280;54687;50.800;6.772;2023-07-31T00:41:17;93168.53;;;-144.06;27.51
11017;BME280;54687;50.800;6.772;2023-07-31T00:43:44;93244.69;;;-144.06;27.62
11017;BME280;54687;50.800;6.772;2023-07-31T00:46:11;93170.66;;;-144.06;27.58
11017;BME280;54687;50.800;6.772;2023-07-31T00:48:40;93189.69;;;-144.06;27.68
11017;BME280;54687;50.800;6.772;2023-07-31T00:51:07;93227.78;;;-144.06;27.77
11017;BME280;54687;50.800;6.772;2023-07-31T00:53:34;93238.34;;;-144.06;27.85
11017;BME280;54687;50.800;6.772;2023-07-31T00:56:03;93244.69;;;-144.06;27.67
11017;BME280;54687;50.800;6.772;2023-07-31T00:58:30;93365.31;;;-144.06;27.87
11017;BME280;54687;50.800;6.772;2023-07-31T01:00:57;93236.22;;;-144.06;27.75
11017;BME280;54687;50.800;6.772;2023-07-31T01:03:24;93212.97;;;-144.06;27.78
11017;BME280;54687;50.800;6.772;2023-07-31T01:05:59;93274.31;;;-144.06;27.63
11017;BME280;54687;50.800;6.772;2023-07-31T01:08:33;93210.84;;;-144.06;27.75
11017;BME280;54687;50.800;6.772;2023-07-31T01:11:07;93384.34;;;-144.06;27.88
11017;BME280;54687;50.800;6.772;2023-07-31T01:13:37;93289.13;;;-144.06;27.89
11017;BME280;54687;50.800;6.772;2023-07-31T01:16:04;93272.22;;;-144.06;27.95
11017;BME280;54687;50.800;6.772;2023-07-31T01:18:31;93270.09;;;-144.06;27.78
11017;BME280;54687;50.800;6.772;2023-07-31T01:21:06;93223.53;;;-144.06;27.83
11017;BME280;54687;50.800;6.772;2023-07-31T01:26:34;93164.28;;;-144.06;27.82
11017;BME280;54687;50.800;6.772;2023-07-31T01:29:07;93174.88;;;-144.06;27.96
11017;BME280;54687;50.800;6.772;2023-07-31T01:31:36;93189.69;;;-144.06;27.91
11017;BME280;54687;50.800;6.772;2023-07-31T01:34:03;93215.06;;;-144.06;27.94
11017;BME280;54687;50.800;6.772;2023-07-31T01:36:30;93168.53;;;-144.06;28.00
11017;BME280;54687;50.800;6.772;2023-07-31T01:38:58;93185.44;;;-144.06;27.74
11017;BME280;54687;50.800;6.772;2023-07-31T01:41:25;93172.75;;;-144.06;27.74
11017;BME280;54687;50.800;6.772;2023-07-31T01:43:53;93227.78;;;-144.06;27.80
11017;BME280;54687;50.800;6.772;2023-07-31T01:46:20;93204.50;;;-144.06;27.82
11017;BME280;54687;50.800;6.772;2023-07-31T01:48:46;93299.72;;;-144.06;27.81
11017;BME280;54687;50.800;6.772;2023-07-31T01:51:14;93257.41;;;-144.06;27.81
11017;BME280;54687;50.800;6.772;2023-07-31T01:53:40;93219.31;;;-144.06;27.85
11017;BME280;54687;50.800;6.772;2023-07-31T01:56:07;93185.44;;;-144.06;27.80
11017;BME280;54687;50.800;6.772;2023-07-31T01:58:34;93227.78;;;-144.06;27.71
11017;BME280;54687;50.800;6.772;2023-07-31T02:01:02;93217.19;;;-144.06;27.69
11017;BME280;54687;50.800;6.772;2023-07-31T02:03:29;93248.94;;;-144.06;27.60
11017;BME280;54687;50.800;6.772;2023-07-31T02:05:56;93191.81;;;-144.06;27.66
11017;BME280;54687;50.800;6.772;2023-07-31T02:08:23;93221.44;;;-144.06;27.61
11017;BME280;54687;50.800;6.772;2023-07-31T02:10:49;93206.63;;;-144.06;27.45
11017;BME280;54687;50.800;6.772;2023-07-31T02:13:16;93215.06;;;-144.06;27.43
11017;BME280;54687;50.800;6.772;2023-07-31T02:15:43;93168.53;;;-144.06;27.44
11017;BME280;54687;50.800;6.772;2023-07-31T02:18:11;93136.78;;;-144.06;27.30
11017;BME280;54687;50.800;6.772;2023-07-31T02:20:38;93219.31;;;-144.06;27.66
11017;BME280;54687;50.800;6.772;2023-07-31T02:23:04;93193.91;;;-144.06;27.67
11017;BME280;54687;50.800;6.772;2023-07-31T02:25:31;93236.22;;;-144.06;27.62
11017;BME280;54687;50.800;6.772;2023-07-31T02:27:58;93177.00;;;-144.06;27.47
11017;BME280;54687;50.800;6.772;2023-07-31T02:30:25;93141.03;;;-144.06;27.33
11017;BME280;54687;50.800;6.772;2023-07-31T02:32:52;93102.94;;;-144.06;27.34
11017;BME280;54687;50.800;6.772;2023-07-31T02:35:20;93134.66;;;-144.06;27.31
11017;BME280;54687;50.800;6.772;2023-07-31T02:37:47;93128.31;;;-144.06;27.25
11017;BME280;54687;50.800;6.772;2023-07-31T02:40:14;93075.44;;;-144.06;27.40
11017;BME280;54687;50.800;6.772;2023-07-31T02:42:41;93083.88;;;-144.06;27.22
11017;BME280;54687;50.800;6.772;2023-07-31T02:45:08;93096.59;;;-144.06;27.07
11017;BME280;54687;50.800;6.772;2023-07-31T02:47:35;93134.66;;;-144.06;27.25
11017;BME280;54687;50.800;6.772;2023-07-31T02:50:02;93105.06;;;-144.06;27.34
11017;BME280;54687;50.800;6.772;2023-07-31T02:52:30;93109.28;;;-144.06;27.45
11017;BME280;54687;50.800;6.772;2023-07-31T02:54:57;93102.94;;;-144.06;27.50
11017;BME280;54687;50.800;6.772;2023-07-31T02:57:24;93073.31;;;-144.06;27.29
11017;BME280;54687;50.800;6.772;2023-07-31T02:59:50;93100.81;;;-144.06;27.23
11017;BME280;54687;50.800;6.772;2023-07-31T03:02:17;93033.09;;;-144.06;27.35
11017;BME280;54687;50.800;6.772;2023-07-31T03:04:44;93077.53;;;-144.06;27.26
11017;BME280;54687;50.800;6.772;2023-07-31T03:07:11;93062.72;;;-144.06;27.34
11017;BME280;54687;50.800;6.772;2023-07-31T03:09:39;93005.59;;;-144.06;27.16
11017;BME280;54687;50.800;6.772;2023-07-31T03:12:07;93033.09;;;-144.06;27.20
11017;BME280;54687;50.800;6.772;2023-07-31T03:14:33;93058.50;;;-144.06;27.23
11017;BME280;54687;50.800;6.772;2023-07-31T03:17:00;93058.50;;;-144.06;27.35
11017;BME280;54687;50.800;6.772;2023-07-31T03:19:30;93028.88;;;-144.06;27.12
11017;BME280;54687;50.800;6.772;2023-07-31T03:21:57;93100.81;;;-144.06;27.35
11017;BME280;54687;50.800;6.772;2023-07-31T03:24:23;93045.81;;;-144.06;27.11
11017;BME280;54687;50.800;6.772;2023-07-31T03:26:51;93058.50;;;-144.06;27.23
11017;BME280;54687;50.800;6.772;2023-07-31T03:29:18;93111.41;;;-144.06;27.27
11017;BME280;54687;50.800;6.772;2023-07-31T03:31:45;93058.50;;;-144.06;27.03
11017;BME280;54687;50.800;6.772;2023-07-31T03:34:12;93045.81;;;-144.06;27.06
11017;BME280;54687;50.800;6.772;2023-07-31T03:36:38;93014.06;;;-144.06;26.96
11017;BME280;54687;50.800;6.772;2023-07-31T03:39:05;92969.63;;;-144.06;26.95
11017;BME280;54687;50.800;6.772;2023-07-31T03:41:32;93011.94;;;-144.06;27.12
11017;BME280;54687;50.800;6.772;2023-07-31T03:44:01;92961.16;;;-144.06;26.89
11017;BME280;54687;50.800;6.772;2023-07-31T03:46:28;92935.78;;;-144.06;27.02
11017;BME280;54687;50.800;6.772;2023-07-31T03:48:55;92963.28;;;-144.06;26.96
11017;BME280;54687;50.800;6.772;2023-07-31T03:51:22;93011.94;;;-144.06;27.11
11017;BME280;54687;50.800;6.772;2023-07-31T03:53:49;92935.78;;;-144.06;27.04
11017;BME280;54687;50.800;6.772;2023-07-31T03:56:16;92931.56;;;-144.06;26.89
11017;BME280;54687;50.800;6.772;2023-07-31T03:58:43;92880.78;;;-144.06;26.85
11017;BME280;54687;50.800;6.772;2023-07-31T04:01:12;92914.63;;;-144.06;27.01
11017;BME280;54687;50.800;6.772;2023-07-31T04:03:41;92931.56;;;-144.06;26.70
11017;BME280;54687;50.800;6.772;2023-07-31T04:06:08;92918.84;;;-144.06;26.98
11017;BME280;54687;50.800;6.772;2023-07-31T04:08:36;92940.00;;;-144.06;26.81
11017;BME280;54687;50.800;6.772;2023-07-31T04:11:02;92978.09;;;-144.06;27.10
11017;BME280;54687;50.800;6.772;2023-07-31T04:13:29;93014.06;;;-144.06;27.13
11017;BME280;54687;50.800;6.772;2023-07-31T04:15:56;93066.97;;;-144.06;27.16
11017;BME280;54687;50.800;6.772;2023-07-31T04:18:25;93024.66;;;-144.06;27.18
11017;BME280;54687;50.800;6.772;2023-07-31T04:20:52;93007.72;;;-144.06;26.82
11017;BME280;54687;50.800;6.772;2023-07-31T04:23:20;93003.50;;;-144.06;26.94
11017;BME280;54687;50.800;6.772;2023-07-31T04:25:46;93033.09;;;-144.06;26.97
11017;BME280;54687;50.800;6.772;2023-07-31T04:28:13;92982.34;;;-144.06;26.95
11017;BME280;54687;50.800;6.772;2023-07-31T04:30:39;93005.59;;;-144.06;26.85
11017;BME280;54687;50.800;6.772;2023-07-31T04:33:06;92959.06;;;-144.06;26.98
11017;BME280;54687;50.800;6.772;2023-07-31T04:35:34;92969.63;;;-144.06;26.81
11017;BME280;54687;50.800;6.772;2023-07-31T04:38:00;92999.25;;;-144.06;26.98
11017;BME280;54687;50.800;6.772;2023-07-31T04:40:27;93007.72;;;-144.06;26.90
11017;BME280;54687;50.800;6.772;2023-07-31T04:42:53;92948.47;;;-144.06;26.78
11017;BME280;54687;50.800;6.772;2023-07-31T04:45:20;92959.06;;;-144.06;26.86
11017;BME280;54687;50.800;6.772;2023-07-31T04:47:47;92925.19;;;-144.06;26.88
11017;BME280;54687;50.800;6.772;2023-07-31T04:50:14;92889.25;;;-144.06;26.58
11017;BME280;54687;50.800;6.772;2023-07-31T04:52:42;92859.63;;;-144.06;26.75
11017;BME280;54687;50.800;6.772;2023-07-31T04:55:09;92863.84;;;-144.06;26.73
11017;BME280;54687;50.800;6.772;2023-07-31T04:57:36;92906.16;;;-144.06;26.71
11017;BME280;54687;50.800;6.772;2023-07-31T05:00:03;92908.28;;;-144.06;26.67
11017;BME280;54687;50.800;6.772;2023-07-31T05:02:30;92861.72;;;-144.06;26.62
11017;BME280;54687;50.800;6.772;2023-07-31T05:04:57;92859.63;;;-144.06;26.91
11017;BME280;54687;50.800;6.772;2023-07-31T05:07:24;92791.91;;;-144.06;26.34
11017;BME280;54687;50.800;6.772;2023-07-31T05:09:52;92760.19;;;-144.06;26.49
11017;BME280;54687;50.800;6.772;2023-07-31T05:12:19;92650.16;;;-144.06;26.71
11017;BME280;54687;50.800;6.772;2023-07-31T05:14:45;92669.22;;;-144.06;26.38
11017;BME280;54687;50.800;6.772;2023-07-31T05:17:12;92641.69;;;-144.06;26.45
11017;BME280;54687;50.800;6.772;2023-07-31T05:19:39;92686.13;;;-144.06;26.39
11017;BME280;54687;50.800;6.772;2023-07-31T05:22:05;92652.28;;;-144.06;26.26
11017;BME280;54687;50.800;6.772;2023-07-31T05:24:32;92694.59;;;-144.06;26.73
11017;BME280;54687;50.800;6.772;2023-07-31T05:27:00;92660.75;;;-144.06;26.49
11017;BME280;54687;50.800;6.772;2023-07-31T05:29:26;92686.13;;;-144.06;26.47
11017;BME280;54687;50.800;6.772;2023-07-31T05:31:53;92703.06;;;-144.06;26.44
11017;BME280;54687;50.800;6.772;2023-07-31T05:34:19;92675.56;;;-144.06;26.37
11017;BME280;54687;50.800;6.772;2023-07-31T05:36:46;92717.88;;;-144.06;26.35
11017;BME280;54687;50.800;6.772;2023-07-31T05:39:12;92758.06;;;-144.06;26.57
11017;BME280;54687;50.800;6.772;2023-07-31T05:41:39;92772.88;;;-144.06;26.35
11017;BME280;54687;50.800;6.772;2023-07-31T05:44:07;92787.69;;;-144.06;26.64
11017;BME280;54687;50.800;6.772;2023-07-31T05:46:33;92868.06;;;-144.06;26.57
11017;BME280;54687;50.800;6.772;2023-07-31T05:49:00;92863.84;;;-144.06;26.57
11017;BME280;54687;50.800;6.772;2023-07-31T05:51:27;92785.56;;;-144.06;26.62
11017;BME280;54687;50.800;6.772;2023-07-31T05:53:53;92775.00;;;-144.06;26.50
11017;BME280;54687;50.800;6.772;2023-07-31T05:56:20;92787.69;;;-144.06;26.93
11017;BME280;54687;50.800;6.772;2023-07-31T05:58:48;92855.38;;;-144.06;27.03
11017;BME280;54687;50.800;6.772;2023-07-31T06:01:17;92855.38;;;-144.06;27.13
11017;BME280;54687;50.800;6.772;2023-07-31T06:03:44;92775.00;;;-144.06;27.06
11017;BME280;54687;50.800;6.772;2023-07-31T06:06:11;92762.28;;;-144.06;27.14
11017;BME280;54687;50.800;6.772;2023-07-31T06:08:39;92846.91;;;-144.06;27.35
11017;BME280;54687;50.800;6.772;2023-07-31T06:11:06;92794.03;;;-144.06;27.21
11017;BME280;54687;50.800;6.772;2023-07-31T06:13:34;92830.00;;;-144.06;27.76
11017;BME280;54687;50.800;6.772;2023-07-31T06:16:01;92825.75;;;-144.06;27.86
11017;BME280;54687;50.800;6.772;2023-07-31T06:18:31;92815.19;;;-144.06;27.80
11017;BME280;54687;50.800;6.772;2023-07-31T06:20:58;92808.84;;;-144.06;27.78
11017;BME280;54687;50.800;6.772;2023-07-31T06:23:25;92783.44;;;-144.06;27.72
11017;BME280;54687;50.800;6.772;2023-07-31T06:25:51;92783.44;;;-144.06;28.06
11017;BME280;54687;50.800;6.772;2023-07-31T06:28:18;92798.25;;;-144.06;27.72
11017;BME280;54687;50.800;6.772;2023-07-31T06:30:44;92715.75;;;-144.06;27.94
11017;BME280;54687;50.800;6.772;2023-07-31T06:33:11;92694.59;;;-144.06;27.84
11017;BME280;54687;50.800;6.772;2023-07-31T06:35:39;92656.50;;;-144.06;27.75
11017;BME280;54687;50.800;6.772;2023-07-31T06:38:07;92569.78;;;-144.06;27.46
11017;BME280;54687;50.800;6.772;2023-07-31T06:40:33;92529.56;;;-144.06;27.86
11017;BME280;54687;50.800;6.772;2023-07-31T06:43:00;92434.38;;;-144.06;27.25
11017;BME280;54687;50.800;6.772;2023-07-31T06:45:33;92334.97;;;-144.06;27.40
11017;BME280;54687;50.800;6.772;2023-07-31T06:48:00;92227.06;;;-144.06;27.20
11017;BME280;54687;50.800;6.772;2023-07-31T06:50:27;92142.47;;;-144.06;27.03
11017;BME280;54687;50.800;6.772;2023-07-31T06:52:55;92110.72;;;-144.06;27.11
11017;BME280;54687;50.800;6.772;2023-07-31T06:55:22;92098.03;;;-144.06;27.04
11017;BME280;54687;50.800;6.772;2023-07-31T06:57:51;91975.34;;;-144.06;26.77
11017;BME280;54687;50.800;6.772;2023-07-31T07:00:18;91806.16;;;-144.06;26.85
11017;BME280;54687;50.800;6.772;2023-07-31T07:02:46;91806.16;;;-144.06;26.32
11017;BME280;54687;50.800;6.772;2023-07-31T07:05:14;91694.03;;;-144.06;26.43
11017;BME280;54687;50.800;6.772;2023-07-31T07:07:41;91675.00;;;-144.06;26.26
11017;BME280;54687;50.800;6.772;2023-07-31T07:10:10;91662.31;;;-144.06;25.91
11017;BME280;54687;50.800;6.772;2023-07-31T07:12:36;91708.84;;;-144.06;26.35
11017;BME280;54687;50.800;6.772;2023-07-31T07:15:03;91713.06;;;-144.06;26.23
11017;BME280;54687;50.800;6.772;2023-07-31T07:17:30;91732.13;;;-144.06;26.07
11017;BME280;54687;50.800;6.772;2023-07-31T07:19:57;91804.03;;;-144.06;26.05
11017;BME280;54687;50.800;6.772;2023-07-31T07:22:24;91861.13;;;-144.06;26.00
11017;BME280;54687;50.800;6.772;2023-07-31T07:24:51;91839.97;;;-144.06;26.03
11017;BME280;54687;50.800;6.772;2023-07-31T07:27:19;91793.44;;;-144.06;25.88
11017;BME280;54687;50.800;6.772;2023-07-31T07:29:46;91839.97;;;-144.06;25.93
11017;BME280;54687;50.800;6.772;2023-07-31T07:32:12;91814.59;;;-144.06;25.98
11017;BME280;54687;50.800;6.772;2023-07-31T07:34:39;91740.56;;;-144.06;26.22
11017;BME280;54687;50.800;6.772;2023-07-31T07:37:06;91687.69;;;-144.06;25.93
11017;BME280;54687;50.800;6.772;2023-07-31T07:39:32;91778.66;;;-144.06;26.08
11017;BME280;54687;50.800;6.772;2023-07-31T07:41:59;91806.16;;;-144.06;26.12
11017;BME280;54687;50.800;6.772;2023-07-31T07:44:27;91780.75;;;-144.06;26.13
11017;BME280;54687;50.800;6.772;2023-07-31T07:46:54;91776.53;;;-144.06;26.09
11017;BME280;54687;50.800;6.772;2023-07-31T07:49:20;91810.38;;;-144.06;26.17
11017;BME280;54687;50.800;6.772;2023-07-31T07:51:49;91814.59;;;-144.06;26.29
11017;BME280;54687;50.800;6.772;2023-07-31T07:54:15;91865.38;;;-144.06;26.17
11017;BME280;54687;50.800;6.772;2023-07-31T07:56:43;91880.16;;;-144.06;26.31
11017;BME280;54687;50.800;6.772;2023-07-31T07:59:09;91952.09;;;-144.06;26.31
11017;BME280;54687;50.800;6.772;2023-07-31T08:01:37;91924.59;;;-144.06;26.24
11017;BME280;54687;50.800;6.772;2023-07-31T08:04:04;91827.28;;;-144.06;26.13
11017;BME280;54687;50.800;6.772;2023-07-31T08:06:30;91924.59;;;-144.06;26.13
11017;BME280;54687;50.800;6.772;2023-07-31T08:08:59;92138.22;;;-144.06;26.19
11017;BME280;54687;50.800;6.772;2023-07-31T08:11:30;92119.19;;;-144.06;26.00
11017;BME280;54687;50.800;6.772;2023-07-31T08:13:57;92093.81;;;-144.06;26.06
11017;BME280;54687;50.800;6.772;2023-07-31T08:16:24;92098.03;;;-144.06;26.34
11017;BME280;54687;50.800;6.772;2023-07-31T08:18:52;92043.03;;;-144.06;25.95
11017;BME280;54687;50.800;6.772;2023-07-31T08:21:19;92186.88;;;-144.06;26.37
11017;BME280;54687;50.800;6.772;2023-07-31T08:23:45;92191.09;;;-144.06;26.67
11017;BME280;54687;50.800;6.772;2023-07-31T08:26:14;92053.63;;;-144.06;26.22
11017;BME280;54687;50.800;6.772;2023-07-31T08:28:41;92076.88;;;-144.06;26.02
11017;BME280;54687;50.800;6.772;2023-07-31T08:31:08;91962.66;;;-144.06;25.95
11017;BME280;54687;50.800;6.772;2023-07-31T08:33:36;91810.38;;;-144.06;25.95
11017;BME280;54687;50.800;6.772;2023-07-31T08:36:04;91785.00;;;-144.06;25.63
11017;BME280;54687;50.800;6.772;2023-07-31T08:38:31;91799.78;;;-144.06;25.47
11017;BME280;54687;50.800;6.772;2023-07-31T08:40:58;91789.22;;;-144.06;25.42
11017;BME280;54687;50.800;6.772;2023-07-31T08:43:26;91734.22;;;-144.06;25.70
11017;BME280;54687;50.800;6.772;2023-07-31T08:45:53;91594.63;;;-144.06;25.50
11017;BME280;54687;50.800;6.772;2023-07-31T08:48:21;91590.41;;;-144.06;25.51
11017;BME280;54687;50.800;6.772;2023-07-31T08:50:48;91780.75;;;-144.06;25.43
11017;BME280;54687;50.800;6.772;2023-07-31T08:53:16;91749.03;;;-144.06;25.58
11017;BME280;54687;50.800;6.772;2023-07-31T08:55:44;91765.97;;;-144.06;25.42
11017;BME280;54687;50.800;6.772;2023-07-31T08:58:12;91734.22;;;-144.06;25.49
11017;BME280;54687;50.800;6.772;2023-07-31T09:00:40;91810.38;;;-144.06;25.35
11017;BME280;54687;50.800;6.772;2023-07-31T09:03:13;91742.69;;;-144.06;25.31
11017;BME280;54687;50.800;6.772;2023-07-31T09:05:42;91734.22;;;-144.06;25.26
11017;BME280;54687;50.800;6.772;2023-07-31T09:08:09;91717.31;;;-144.06;25.39
11017;BME280;54687;50.800;6.772;2023-07-31T09:10:41;91738.47;;;-144.06;25.37
11017;BME280;54687;50.800;6.772;2023-07-31T09:13:08;91751.16;;;-144.06;25.31
11017;BME280;54687;50.800;6.772;2023-07-31T09:15:35;91776.53;;;-144.06;25.24
11017;BME280;54687;50.800;6.772;2023-07-31T09:18:04;91723.66;;;-144.06;25.07
11017;BME280;54687;50.800;6.772;2023-07-31T09:20:31;91700.38;;;-144.06;25.03
11017;BME280;54687;50.800;6.772;2023-07-31T09:23:05;91603.09;;;-144.06;24.89
11017;BME280;54687;50.800;6.772;2023-07-31T09:25:33;91721.53;;;-144.06;25.02
11017;BME280;54687;50.800;6.772;2023-07-31T09:28:02;91694.03;;;-144.06;24.84
11017;BME280;54687;50.800;6.772;2023-07-31T09:30:30;91696.16;;;-144.06;25.05
11017;BME280;54687;50.800;6.772;2023-07-31T09:33:03;91746.91;;;-144.06;24.73
11017;BME280;54687;50.800;6.772;2023-07-31T09:35:34;91586.19;;;-144.06;24.80
11017;BME280;54687;50.800;6.772;2023-07-31T09:38:05;91461.41;;;-144.06;24.91
11017;BME280;54687;50.800;6.772;2023-07-31T09:40:33;91387.38;;;-144.06;24.55
11017;BME280;54687;50.800;6.772;2023-07-31T09:43:03;91459.28;;;-144.06;24.46
11017;BME280;54687;50.800;6.772;2023-07-31T09:45:35;91178.03;;;-144.06;24.60
11017;BME280;54687;50.800;6.772;2023-07-31T09:48:03;91044.78;;;-144.06;24.38
11017;BME280;54687;50.800;6.772;2023-07-31T09:50:29;90850.25;;;-144.06;24.19
11017;BME280;54687;50.800;6.772;2023-07-31T09:52:56;90759.34;;;-144.06;23.87
11017;BME280;54687;50.800;6.772;2023-07-31T09:55:25;90607.09;;;-144.06;23.69
11017;BME280;54687;50.800;6.772;2023-07-31T09:57:54;90427.38;;;-144.06;23.84
11017;BME280;54687;50.800;6.772;2023-07-31T10:00:23;90148.31;;;-144.06;23.62
11017;BME280;54687;50.800;6.772;2023-07-31T10:02:54;90158.88;;;-144.06;23.60
11017;BME280;54687;50.800;6.772;2023-07-31T10:05:22;89949.59;;;-144.06;23.10
11017;BME280;54687;50.800;6.772;2023-07-31T10:07:53;89949.59;;;-144.06;23.26
11017;BME280;54687;50.800;6.772;2023-07-31T10:10:22;90298.41;;;-144.06;23.43
11017;BME280;54687;50.800;6.772;2023-07-31T10:12:49;90473.91;;;-144.06;23.60
11017;BME280;54687;50.800;6.772;2023-07-31T10:15:16;90300.53;;;-144.06;23.57
11017;BME280;54687;50.800;6.772;2023-07-31T10:17:46;90382.97;;;-144.06;23.26
11017;BME280;54687;50.800;6.772;2023-07-31T10:20:14;90194.81;;;-144.06;23.39
11017;BME280;54687;50.800;6.772;2023-07-31T10:22:42;90251.91;;;-144.06;23.60
11017;BME280;54687;50.800;6.772;2023-07-31T10:25:09;90220.19;;;-144.06;23.41
11017;BME280;54687;50.800;6.772;2023-07-31T10:27:38;90237.09;;;-144.06;23.50
11017;BME280;54687;50.800;6.772;2023-07-31T10:30:06;90224.41;;;-144.06;23.50
11017;BME280;54687;50.800;6.772;2023-07-31T10:32:35;90260.34;;;-144.06;23.54
11017;BME280;54687;50.800;6.772;2023-07-31T10:35:04;90173.69;;;-144.06;23.58
11017;BME280;54687;50.800;6.772;2023-07-31T10:37:37;89911.53;;;-144.06;23.08
11017;BME280;54687;50.800;6.772;2023-07-31T10:40:06;89810.06;;;-144.06;23.16
11017;BME280;54687;50.800;6.772;2023-07-31T10:42:36;90146.19;;;-144.06;23.13
11017;BME280;54687;50.800;6.772;2023-07-31T10:45:05;90478.13;;;-144.06;23.43
11017;BME280;54687;50.800;6.772;2023-07-31T10:47:37;90302.63;;;-144.06;23.41
11017;BME280;54687;50.800;6.772;2023-07-31T10:50:17;90188.47;;;-144.06;23.53
11017;BME280;54687;50.800;6.772;2023-07-31T10:52:46;90184.25;;;-144.06;23.26
11017;BME280;54687;50.800;6.772;2023-07-31T10:55:30;90110.25;;;-144.06;23.31
11017;BME280;54687;50.800;6.772;2023-07-31T10:58:04;90393.56;;;-144.06;23.67
11017;BME280;54687;50.800;6.772;2023-07-31T11:00:32;90499.25;;;-144.06;23.72
11017;BME280;54687;50.800;6.772;2023-07-31T11:03:00;90803.72;;;-144.06;24.19
11017;BME280;54687;50.800;6.772;2023-07-31T11:05:51;90807.97;;;-144.06;24.58
11017;BME280;54687;50.800;6.772;2023-07-31T11:08:21;90691.66;;;-144.06;24.53
11017;BME280;54687;50.800;6.772;2023-07-31T11:10:50;90896.78;;;-144.06;24.32
11017;BME280;54687;50.800;6.772;2023-07-31T11:13:17;90862.94;;;-144.06;24.19
11017;BME280;54687;50.800;6.772;2023-07-31T11:15:43;90814.31;;;-144.06;24.14
11017;BME280;54687;50.800;6.772;2023-07-31T11:18:10;90706.47;;;-144.06;24.07
11017;BME280;54687;50.800;6.772;2023-07-31T11:20:38;90575.38;;;-144.06;23.99
11017;BME280;54687;50.800;6.772;2023-07-31T11:23:08;90499.25;;;-144.06;23.94
11017;BME280;54687;50.800;6.772;2023-07-31T11:25:37;90313.22;;;-144.06;23.87
11017;BME280;54687;50.800;6.772;2023-07-31T11:28:06;90051.06;;;-144.06;23.76
11017;BME280;54687;50.800;6.772;2023-07-31T11:30:34;90285.72;;;-144.06;23.79
11017;BME280;54687;50.800;6.772;2023-07-31T11:33:01;90266.69;;;-144.06;23.81
11017;BME280;54687;50.800;6.772;2023-07-31T11:35:30;90277.28;;;-144.06;23.97
11017;BME280;54687;50.800;6.772;2023-07-31T11:37:56;90391.44;;;-144.06;24.13
11017;BME280;54687;50.800;6.772;2023-07-31T11:40:24;90270.94;;;-144.06;23.75
11017;BME280;54687;50.800;6.772;2023-07-31T11:42:55;89926.34;;;-144.06;23.64
11017;BME280;54687;50.800;6.772;2023-07-31T11:45:24;89881.94;;;-144.06;23.97
11017;BME280;54687;50.800;6.772;2023-07-31T11:47:51;90082.78;;;-144.06;23.72
11017;BME280;54687;50.800;6.772;2023-07-31T11:50:18;89788.94;;;-144.06;23.61
11017;BME280;54687;50.800;6.772;2023-07-31T11:52:46;89497.22;;;-144.06;23.47
11017;BME280;54687;50.800;6.772;2023-07-31T11:55:15;89731.88;;;-144.06;23.35
11017;BME280;54687;50.800;6.772;2023-07-31T11:57:44;89499.34;;;-144.06;23.27
11017;BME280;54687;50.800;6.772;2023-07-31T12:00:13;89640.97;;;-144.06;23.67
11017;BME280;54687;50.800;6.772;2023-07-31T12:02:41;89983.41;;;-144.06;23.36
11017;BME280;54687;50.800;6.772;2023-07-31T12:05:10;90173.69;;;-144.06;23.77
11017;BME280;54687;50.800;6.772;2023-07-31T12:07:45;89531.06;;;-144.06;23.55
11017;BME280;54687;50.800;6.772;2023-07-31T12:10:21;89865.03;;;-144.06;23.72
11017;BME280;54687;50.800;6.772;2023-07-31T12:12:58;89818.53;;;-144.06;23.65
11017;BME280;54687;50.800;6.772;2023-07-31T12:15:32;89780.47;;;-144.06;23.64
11017;BME280;54687;50.800;6.772;2023-07-31T12:18:00;89782.59;;;-144.06;23.57
11017;BME280;54687;50.800;6.772;2023-07-31T12:20:26;89653.66;;;-144.06;23.67
11017;BME280;54687;50.800;6.772;2023-07-31T12:22:56;89370.41;;;-144.06;23.53
11017;BME280;54687;50.800;6.772;2023-07-31T12:25:22;89389.44;;;-144.06;23.44
11017;BME280;54687;50.800;6.772;2023-07-31T12:27:50;89159.06;;;-144.06;23.23
11017;BME280;54687;50.800;6.772;2023-07-31T12:30:29;89302.78;;;-144.06;23.24
11017;BME280;54687;50.800;6.772;2023-07-31T12:33:03;89121.03;;;-144.06;23.06
11017;BME280;54687;50.800;6.772;2023-07-31T12:35:35;88791.34;;;-144.06;22.99
11017;BME280;54687;50.800;6.772;2023-07-31T12:38:02;88387.72;;;-144.06;22.89
11017;BME280;54687;50.800;6.772;2023-07-31T12:40:29;88609.59;;;-144.06;22.92
11017;BME280;54687;50.800;6.772;2023-07-31T12:42:56;88736.41;;;-144.06;22.91
11017;BME280;54687;50.800;6.772;2023-07-31T12:45:23;88611.72;;;-144.06;22.89
11017;BME280;54687;50.800;6.772;2023-07-31T12:47:52;88662.44;;;-144.06;22.86